Time,TemperatureF,DewpointF,PressureIn,WindDirection,WindDirectionDegrees,WindSpeedMPH,WindSpeedGustMPH,Humidity,HourlyPrecipIn,Conditions,Clouds,dailyrainin,SoftwareType,DateUTC
2014-02-04 00:01:00,1.6,-2.1,30.43,SSW,196,0.0,0.0,84,0.00,,,0.00,Wunderground v.1.15,2014-02-04 05:01:00,
2014-02-04 00:02:00,1.6,-2.4,30.43,SSW,195,0.0,0.0,83,0.00,,,0.00,Wunderground v.1.15,2014-02-04 05:02:00,
2014-02-04 00:03:00,1.5,-2.5,30.43,SSW,195,0.0,0.0,83,0.00,,,0.00,Wunderground v.1.15,2014-02-04 05:03:00,
2014-02-04 00:04:00,1.5,-2.5,30.43,SSW,196,0.0,0.0,83,0.00,,,0.00,Wunderground v.1.15,2014-02-04 05:04:00,
2014-02-04 00:06:00,1.5,-2.5,30.42,SSW,196,0.0,0.0,83,0.00,,,0.00,Wunderground v.1.15,2014-02-04 05:06:00,
2014-02-04 00:11:00,1.4,-2.6,30.42,SSW,195,0.0,0.0,83,0.00,,,0.00,Wunderground v.1.15,2014-02-04 05:11:00,
2014-02-04 00:16:00,1.2,-2.8,30.43,SSW,195,0.0,0.0,83,0.00,,,0.00,Wunderground v.1.15,2014-02-04 05:16:00,
2014-02-04 00:21:00,1.1,-2.9,30.43,SSW,196,0.0,0.0,83,0.00,,,0.00,Wunderground v.1.15,2014-02-04 05:21:00,
2014-02-04 00:27:00,0.9,-3.1,30.42,SSW,196,0.0,0.0,83,0.00,,,0.00,Wunderground v.1.15,2014-02-04 05:27:00,
2014-02-04 00:32:00,0.9,-3.1,30.42,SSW,196,0.0,0.0,83,0.00,,,0.00,Wunderground v.1.15,2014-02-04 05:32:00,
2014-02-04 00:37:00,0.8,-3.2,30.42,SSW,195,0.0,0.0,83,0.00,,,0.00,Wunderground v.1.15,2014-02-04 05:37:00,
2014-02-04 00:43:00,0.8,-3.2,30.42,SSW,195,0.0,0.0,83,0.00,,,0.00,Wunderground v.1.15,2014-02-04 05:43:00,
2014-02-04 00:48:00,0.8,-3.2,30.42,SSW,196,0.0,0.0,83,0.00,,,0.00,Wunderground v.1.15,2014-02-04 05:48:00,
2014-02-04 00:54:00,0.8,-3.2,30.43,SSW,195,0.0,0.0,83,0.00,,,0.00,Wunderground v.1.15,2014-02-04 05:54:00,
2014-02-04 00:59:00,0.8,-3.2,30.43,SSW,196,0.0,0.0,83,0.00,,,0.00,Wunderground v.1.15,2014-02-04 05:59:00,
2014-02-04 01:04:00,0.6,-3.3,30.42,SSW,195,0.0,0.0,83,0.00,,,0.00,Wunderground v.1.15,2014-02-04 06:04:00,
2014-02-04 01:09:00,0.6,-3.3,30.43,SSW,195,0.0,0.0,83,0.00,,,0.00,Wunderground v.1.15,2014-02-04 06:09:00,
2014-02-04 01:15:00,0.5,-3.4,30.42,SSW,195,0.0,0.0,83,0.00,,,0.00,Wunderground v.1.15,2014-02-04 06:15:00,
2014-02-04 01:20:00,0.5,-3.2,30.42,SSW,196,0.0,0.0,84,0.00,,,0.00,Wunderground v.1.15,2014-02-04 06:20:00,
2014-02-04 01:26:00,0.5,-3.4,30.42,SSW,195,0.0,0.0,83,0.00,,,0.00,Wunderground v.1.15,2014-02-04 06:26:00,
2014-02-04 01:31:00,0.6,-3.1,30.42,SSW,196,0.0,0.0,84,0.00,,,0.00,Wunderground v.1.15,2014-02-04 06:31:00,
2014-02-04 01:36:00,0.6,-3.1,30.42,SSW,196,0.0,0.0,84,0.00,,,0.00,Wunderground v.1.15,2014-02-04 06:36:00,
2014-02-04 01:41:00,0.7,-3.0,30.42,SSW,196,0.0,0.0,84,0.00,,,0.00,Wunderground v.1.15,2014-02-04 06:41:00,
2014-02-04 01:47:00,0.8,-2.9,30.42,SSW,196,0.0,0.0,84,0.00,,,0.00,Wunderground v.1.15,2014-02-04 06:47:00,
2014-02-04 01:52:00,1.0,-2.7,30.42,SSW,196,0.0,0.0,84,0.00,,,0.00,Wunderground v.1.15,2014-02-04 06:52:00,
2014-02-04 01:57:00,1.2,-2.3,30.42,SSW,195,0.0,0.0,85,0.00,,,0.00,Wunderground v.1.15,2014-02-04 06:57:00,
2014-02-04 02:03:00,1.4,-2.1,30.42,SSW,196,0.0,0.0,85,0.00,,,0.00,Wunderground v.1.15,2014-02-04 07:03:00,
2014-02-04 02:08:00,1.6,-1.9,30.42,SSW,196,0.0,0.0,85,0.00,,,0.00,Wunderground v.1.15,2014-02-04 07:08:00,
2014-02-04 02:13:00,1.7,-1.8,30.42,SSW,196,0.0,0.0,85,0.00,,,0.00,Wunderground v.1.15,2014-02-04 07:13:00,
2014-02-04 02:18:00,1.9,-1.6,30.42,SSW,196,0.0,0.0,85,0.00,,,0.00,Wunderground v.1.15,2014-02-04 07:18:00,
2014-02-04 02:23:00,2.0,-1.5,30.43,SSW,195,0.0,0.0,85,0.00,,,0.00,Wunderground v.1.15,2014-02-04 07:23:00,
2014-02-04 02:28:00,2.0,-1.5,30.44,SSW,196,0.0,0.0,85,0.00,,,0.00,Wunderground v.1.15,2014-02-04 07:28:00,
2014-02-04 02:33:00,2.2,-1.0,30.43,SSW,195,0.0,0.0,86,0.00,,,0.00,Wunderground v.1.15,2014-02-04 07:33:00,
2014-02-04 02:38:00,2.3,-0.9,30.43,SSW,196,0.0,0.0,86,0.00,,,0.00,Wunderground v.1.15,2014-02-04 07:38:00,
2014-02-04 02:43:00,2.4,-0.8,30.42,SSW,196,0.0,0.0,86,0.00,,,0.00,Wunderground v.1.15,2014-02-04 07:43:00,
2014-02-04 02:49:00,2.4,-0.8,30.42,SSW,195,0.0,0.0,86,0.00,,,0.00,Wunderground v.1.15,2014-02-04 07:49:00,
2014-02-04 02:54:00,2.5,-0.7,30.42,SSW,195,0.0,0.0,86,0.00,,,0.00,Wunderground v.1.15,2014-02-04 07:54:00,
2014-02-04 02:59:00,2.6,-0.6,30.42,SSW,196,0.0,0.0,86,0.00,,,0.00,Wunderground v.1.15,2014-02-04 07:59:00,
2014-02-04 03:04:00,2.7,-0.5,30.42,SSW,195,0.0,0.0,86,0.00,,,0.00,Wunderground v.1.15,2014-02-04 08:04:00,
2014-02-04 03:09:00,2.7,-0.5,30.42,SSW,196,0.0,0.0,86,0.00,,,0.00,Wunderground v.1.15,2014-02-04 08:09:00,
2014-02-04 03:14:00,2.8,-0.4,30.43,SSW,196,0.0,0.0,86,0.00,,,0.00,Wunderground v.1.15,2014-02-04 08:14:00,
2014-02-04 03:19:00,2.8,-0.4,30.43,SSW,195,0.0,0.0,86,0.00,,,0.00,Wunderground v.1.15,2014-02-04 08:19:00,
2014-02-04 03:24:00,2.8,-0.4,30.43,SSW,195,0.0,0.0,86,0.00,,,0.00,Wunderground v.1.15,2014-02-04 08:24:00,
2014-02-04 03:30:00,2.8,-0.4,30.43,SSW,196,0.0,0.0,86,0.00,,,0.00,Wunderground v.1.15,2014-02-04 08:30:00,
2014-02-04 03:35:00,2.8,-0.7,30.43,SSW,195,0.0,0.0,85,0.00,,,0.00,Wunderground v.1.15,2014-02-04 08:35:00,
2014-02-04 03:40:00,2.8,-0.7,30.44,SSW,195,0.0,0.0,85,0.00,,,0.00,Wunderground v.1.15,2014-02-04 08:40:00,
2014-02-04 03:45:00,2.8,-0.7,30.45,SSW,196,0.0,0.0,85,0.00,,,0.00,Wunderground v.1.15,2014-02-04 08:45:00,
2014-02-04 03:50:00,2.8,-0.7,30.45,SSW,196,0.0,0.0,85,0.00,,,0.00,Wunderground v.1.15,2014-02-04 08:50:00,
2014-02-04 03:55:00,3.0,-0.2,30.44,SSW,195,0.0,0.0,86,0.00,,,0.00,Wunderground v.1.15,2014-02-04 08:55:00,
2014-02-04 04:00:00,3.2,0.0,30.45,SSW,196,0.0,0.0,86,0.00,,,0.00,Wunderground v.1.15,2014-02-04 09:00:00,
2014-02-04 04:05:00,3.3,0.1,30.45,SSW,196,0.0,0.0,86,0.00,,,0.00,Wunderground v.1.15,2014-02-04 09:05:00,
2014-02-04 04:11:00,3.6,0.4,30.45,SSW,195,0.0,0.0,86,0.00,,,0.00,Wunderground v.1.15,2014-02-04 09:11:00,
2014-02-04 04:16:00,3.7,0.4,30.46,SSW,196,0.0,0.0,86,0.00,,,0.00,Wunderground v.1.15,2014-02-04 09:16:00,
2014-02-04 04:21:00,3.8,0.5,30.45,SSW,195,0.0,0.0,86,0.00,,,0.00,Wunderground v.1.15,2014-02-04 09:21:00,
2014-02-04 04:26:00,4.0,1.0,30.46,SSW,195,0.0,0.0,87,0.00,,,0.00,Wunderground v.1.15,2014-02-04 09:26:00,
2014-02-04 04:31:00,4.1,0.8,30.46,SSW,196,0.0,0.0,86,0.00,,,0.00,Wunderground v.1.15,2014-02-04 09:31:00,
2014-02-04 04:36:00,4.2,0.9,30.46,SSW,196,0.0,0.0,86,0.00,,,0.00,Wunderground v.1.15,2014-02-04 09:36:00,
2014-02-04 04:41:00,4.3,1.0,30.47,SSW,195,2.0,2.0,86,0.00,,,0.00,Wunderground v.1.15,2014-02-04 09:41:00,
2014-02-04 04:46:00,4.5,1.5,30.46,SSW,195,0.0,2.0,87,0.00,,,0.00,Wunderground v.1.15,2014-02-04 09:46:00,
2014-02-04 04:51:00,4.6,1.6,30.47,SSW,196,0.0,0.0,87,0.00,,,0.00,Wunderground v.1.15,2014-02-04 09:51:00,
2014-02-04 04:56:00,4.6,1.3,30.47,SSW,196,0.0,0.0,86,0.00,,,0.00,Wunderground v.1.15,2014-02-04 09:56:00,
2014-02-04 05:02:00,4.6,1.3,30.47,SSW,196,0.0,0.0,86,0.00,,,0.00,Wunderground v.1.15,2014-02-04 10:02:00,
2014-02-04 05:07:00,4.7,1.4,30.46,SSW,196,0.0,0.0,86,0.00,,,0.00,Wunderground v.1.15,2014-02-04 10:07:00,
2014-02-04 05:12:00,4.8,1.5,30.46,SSW,195,0.0,0.0,86,0.00,,,0.00,Wunderground v.1.15,2014-02-04 10:12:00,
2014-02-04 05:17:00,4.9,1.9,30.46,SSW,196,0.0,0.0,87,0.00,,,0.00,Wunderground v.1.15,2014-02-04 10:17:00,
2014-02-04 05:22:00,5.1,2.1,30.46,SSW,195,0.0,0.0,87,0.00,,,0.00,Wunderground v.1.15,2014-02-04 10:22:00,
2014-02-04 05:27:00,5.3,2.3,30.45,SSW,196,0.0,0.0,87,0.00,,,0.00,Wunderground v.1.15,2014-02-04 10:27:00,
2014-02-04 05:32:00,5.6,2.6,30.45,SSW,196,0.0,0.0,87,0.00,,,0.00,Wunderground v.1.15,2014-02-04 10:32:00,
2014-02-04 05:38:00,6.0,3.0,30.45,SSW,195,0.0,0.0,87,0.00,,,0.00,Wunderground v.1.15,2014-02-04 10:38:00,
2014-02-04 05:43:00,6.3,3.5,30.45,SSW,196,0.0,0.0,88,0.00,,,0.00,Wunderground v.1.15,2014-02-04 10:43:00,
2014-02-04 05:48:00,6.7,3.9,30.45,SSW,196,0.0,0.0,88,0.00,,,0.00,Wunderground v.1.15,2014-02-04 10:48:00,
2014-02-04 05:54:00,7.2,4.4,30.45,SSW,196,0.0,0.0,88,0.00,,,0.00,Wunderground v.1.15,2014-02-04 10:54:00,
2014-02-04 05:59:00,7.6,4.8,30.44,SSW,196,0.0,0.0,88,0.00,,,0.00,Wunderground v.1.15,2014-02-04 10:59:00,
2014-02-04 06:04:00,7.9,5.1,30.44,SSW,195,0.0,0.0,88,0.00,,,0.00,Wunderground v.1.15,2014-02-04 11:04:00,
2014-02-04 06:09:00,8.2,5.4,30.44,SSW,196,0.0,0.0,88,0.00,,,0.00,Wunderground v.1.15,2014-02-04 11:09:00,
2014-02-04 06:14:00,8.5,5.7,30.44,SSW,196,1.0,1.0,88,0.00,,,0.00,Wunderground v.1.15,2014-02-04 11:14:00,
2014-02-04 06:19:00,8.8,6.0,30.43,SSW,195,0.0,1.0,88,0.00,,,0.00,Wunderground v.1.15,2014-02-04 11:19:00,
2014-02-04 06:24:00,8.9,6.1,30.43,SSW,196,0.0,0.0,88,0.00,,,0.00,Wunderground v.1.15,2014-02-04 11:24:00,
2014-02-04 06:29:00,9.0,6.2,30.44,SSW,196,0.0,0.0,88,0.00,,,0.00,Wunderground v.1.15,2014-02-04 11:29:00,
2014-02-04 06:34:00,9.0,6.2,30.44,SSW,196,0.0,0.0,88,0.00,,,0.00,Wunderground v.1.15,2014-02-04 11:34:00,
2014-02-04 06:39:00,9.0,6.2,30.44,SSW,195,0.0,0.0,88,0.00,,,0.00,Wunderground v.1.15,2014-02-04 11:39:00,
2014-02-04 06:44:00,9.1,6.3,30.44,SSW,196,0.0,0.0,88,0.00,,,0.00,Wunderground v.1.15,2014-02-04 11:44:00,
2014-02-04 06:49:00,9.1,6.3,30.44,SSW,196,0.0,0.0,88,0.00,,,0.00,Wunderground v.1.15,2014-02-04 11:49:00,
2014-02-04 06:55:00,9.1,6.3,30.45,SSW,196,0.0,0.0,88,0.00,,,0.00,Wunderground v.1.15,2014-02-04 11:55:00,
2014-02-04 07:00:00,9.1,6.3,30.44,SSW,196,0.0,0.0,88,0.00,,,0.00,Wunderground v.1.15,2014-02-04 12:00:00,
2014-02-04 07:05:00,9.2,6.4,30.44,SSW,196,0.0,0.0,88,0.00,,,0.00,Wunderground v.1.15,2014-02-04 12:05:00,
2014-02-04 07:11:00,9.3,6.5,30.45,SSW,196,0.0,0.0,88,0.00,,,0.00,Wunderground v.1.15,2014-02-04 12:11:00,
2014-02-04 07:16:00,9.4,6.6,30.45,SSW,195,0.0,0.0,88,0.00,,,0.00,Wunderground v.1.15,2014-02-04 12:16:00,
2014-02-04 07:21:00,9.4,6.6,30.46,SSW,195,0.0,0.0,88,0.00,,,0.00,Wunderground v.1.15,2014-02-04 12:21:00,
2014-02-04 07:26:00,9.5,6.7,30.46,SSW,195,0.0,0.0,88,0.00,,,0.00,Wunderground v.1.15,2014-02-04 12:26:00,
2014-02-04 07:31:00,9.5,6.7,30.47,SSW,196,0.0,0.0,88,0.00,,,0.00,Wunderground v.1.15,2014-02-04 12:31:00,
2014-02-04 07:36:00,9.6,6.8,30.48,SSW,196,0.0,0.0,88,0.00,,,0.00,Wunderground v.1.15,2014-02-04 12:36:00,
2014-02-04 07:41:00,9.8,7.0,30.48,SSW,196,0.0,0.0,88,0.00,,,0.00,Wunderground v.1.15,2014-02-04 12:41:00,
2014-02-04 07:46:00,9.9,7.1,30.47,SSW,196,0.0,0.0,88,0.00,,,0.00,Wunderground v.1.15,2014-02-04 12:46:00,
2014-02-04 07:51:00,9.9,7.1,30.48,SSW,196,0.0,0.0,88,0.00,,,0.00,Wunderground v.1.15,2014-02-04 12:51:00,
2014-02-04 07:56:00,10.1,7.3,30.48,SSW,195,0.0,0.0,88,0.00,,,0.00,Wunderground v.1.15,2014-02-04 12:56:00,
2014-02-04 08:01:00,10.3,7.5,30.48,SSW,196,0.0,0.0,88,0.00,,,0.00,Wunderground v.1.15,2014-02-04 13:01:00,
2014-02-04 08:06:00,10.5,7.6,30.47,SSW,195,0.0,0.0,88,0.00,,,0.00,Wunderground v.1.15,2014-02-04 13:06:00,
2014-02-04 08:11:00,10.7,7.8,30.47,SSW,196,0.0,0.0,88,0.00,,,0.00,Wunderground v.1.15,2014-02-04 13:11:00,
2014-02-04 08:17:00,11.0,8.4,30.47,SSW,195,0.0,0.0,89,0.00,,,0.00,Wunderground v.1.15,2014-02-04 13:17:00,
2014-02-04 08:22:00,11.2,8.3,30.47,SSW,195,0.0,0.0,88,0.00,,,0.00,Wunderground v.1.15,2014-02-04 13:22:00,
2014-02-04 08:27:00,11.5,8.9,30.47,SSW,196,1.0,1.0,89,0.00,,,0.00,Wunderground v.1.15,2014-02-04 13:27:00,
2014-02-04 08:32:00,11.7,9.1,30.46,SSW,194,0.0,3.0,89,0.00,,,0.00,Wunderground v.1.15,2014-02-04 13:32:00,
2014-02-04 08:37:00,11.9,9.3,30.46,SSW,194,1.0,3.0,89,0.00,,,0.00,Wunderground v.1.15,2014-02-04 13:37:00,
2014-02-04 08:43:00,12.1,9.2,30.46,SSW,194,0.0,2.0,88,0.00,,,0.00,Wunderground v.1.15,2014-02-04 13:43:00,
2014-02-04 08:48:00,12.3,9.4,30.45,SSW,192,2.0,3.0,88,0.00,,,0.00,Wunderground v.1.15,2014-02-04 13:48:00,
2014-02-04 08:53:00,12.5,9.6,30.45,South,181,2.0,4.0,88,0.00,,,0.00,Wunderground v.1.15,2014-02-04 13:53:00,
2014-02-04 08:58:00,12.7,9.8,30.44,South,180,1.0,4.0,88,0.00,,,0.00,Wunderground v.1.15,2014-02-04 13:58:00,
2014-02-04 09:03:00,12.9,10.0,30.44,South,179,2.0,3.0,88,0.00,,,0.00,Wunderground v.1.15,2014-02-04 14:03:00,
2014-02-04 09:08:00,13.2,10.3,30.44,South,179,2.0,3.0,88,0.00,,,0.00,Wunderground v.1.15,2014-02-04 14:08:00,
2014-02-04 09:14:00,13.7,11.1,30.43,SSE,163,2.0,3.0,89,0.00,,,0.00,Wunderground v.1.15,2014-02-04 14:14:00,
2014-02-04 09:19:00,14.1,11.2,30.43,SE,127,2.0,4.0,88,0.00,,,0.00,Wunderground v.1.15,2014-02-04 14:19:00,
2014-02-04 09:24:00,14.4,11.8,30.44,ESE,121,2.0,4.0,89,0.00,,,0.00,Wunderground v.1.15,2014-02-04 14:24:00,
2014-02-04 09:29:00,14.7,11.8,30.44,ESE,118,0.0,4.0,88,0.00,,,0.00,Wunderground v.1.15,2014-02-04 14:29:00,
2014-02-04 09:34:00,15.0,12.1,30.44,ENE,78,3.0,3.0,88,0.00,,,0.00,Wunderground v.1.15,2014-02-04 14:34:00,
2014-02-04 09:39:00,15.2,12.3,30.45,East,79,0.0,4.0,88,0.00,,,0.00,Wunderground v.1.15,2014-02-04 14:39:00,
2014-02-04 09:44:00,15.4,12.5,30.44,ENE,78,4.0,4.0,88,0.00,,,0.00,Wunderground v.1.15,2014-02-04 14:44:00,
2014-02-04 09:49:00,15.6,12.7,30.45,East,80,1.0,4.0,88,0.00,,,0.00,Wunderground v.1.15,2014-02-04 14:49:00,
2014-02-04 09:54:00,15.9,12.7,30.45,East,80,1.0,5.0,87,0.00,,,0.00,Wunderground v.1.15,2014-02-04 14:54:00,
2014-02-04 10:00:00,16.2,13.0,30.45,East,79,2.0,2.0,87,0.00,,,0.00,Wunderground v.1.15,2014-02-04 15:00:00,
2014-02-04 10:05:00,16.4,12.9,30.45,East,80,4.0,5.0,86,0.00,,,0.00,Wunderground v.1.15,2014-02-04 15:05:00,
2014-02-04 10:10:00,16.5,13.0,30.45,East,82,4.0,4.0,86,0.00,,,0.00,Wunderground v.1.15,2014-02-04 15:10:00,
2014-02-04 10:15:00,16.7,13.0,30.45,East,88,4.0,7.0,85,0.00,,,0.00,Wunderground v.1.15,2014-02-04 15:15:00,
2014-02-04 10:20:00,16.9,13.2,30.45,East,86,3.0,7.0,85,0.00,,,0.00,Wunderground v.1.15,2014-02-04 15:20:00,
2014-02-04 10:25:00,17.1,13.1,30.44,East,86,3.0,7.0,84,0.00,,,0.00,Wunderground v.1.15,2014-02-04 15:25:00,
2014-02-04 10:31:00,17.3,13.3,30.46,East,88,2.0,3.0,84,0.00,,,0.00,Wunderground v.1.15,2014-02-04 15:31:00,
2014-02-04 10:36:00,17.5,13.5,30.46,East,94,2.0,9.0,84,0.00,,,0.00,Wunderground v.1.15,2014-02-04 15:36:00,
2014-02-04 10:41:00,17.7,13.4,30.45,East,84,5.0,5.0,83,0.00,,,0.00,Wunderground v.1.15,2014-02-04 15:41:00,
2014-02-04 10:46:00,17.7,13.1,30.44,East,95,6.0,10.0,82,0.00,,,0.00,Wunderground v.1.15,2014-02-04 15:46:00,
2014-02-04 10:51:00,17.8,13.2,30.45,East,99,6.0,7.0,82,0.00,,,0.00,Wunderground v.1.15,2014-02-04 15:51:00,
2014-02-04 10:56:00,17.9,13.3,30.43,ENE,69,5.0,8.0,82,0.00,,,0.00,Wunderground v.1.15,2014-02-04 15:56:00,
2014-02-04 11:01:00,18.0,13.2,30.43,East,91,7.0,9.0,81,0.00,,,0.00,Wunderground v.1.15,2014-02-04 16:01:00,
2014-02-04 11:06:00,18.0,13.2,30.43,East,88,4.0,13.0,81,0.00,,,0.00,Wunderground v.1.15,2014-02-04 16:06:00,
2014-02-04 11:11:00,18.1,13.3,30.43,East,88,7.0,7.0,81,0.00,,,0.00,Wunderground v.1.15,2014-02-04 16:11:00,
2014-02-04 11:16:00,18.3,13.4,30.42,ESE,102,1.0,9.0,81,0.00,,,0.00,Wunderground v.1.15,2014-02-04 16:16:00,
2014-02-04 11:22:00,18.5,13.6,30.41,East,96,2.0,6.0,81,0.00,,,0.00,Wunderground v.1.15,2014-02-04 16:22:00,
2014-02-04 11:27:00,18.7,13.8,30.41,East,88,2.0,8.0,81,0.00,,,0.00,Wunderground v.1.15,2014-02-04 16:27:00,
2014-02-04 11:32:00,18.9,14.0,30.40,East,79,2.0,5.0,81,0.00,,,0.00,Wunderground v.1.15,2014-02-04 16:32:00,
2014-02-04 11:37:00,19.0,14.1,30.40,ENE,60,4.0,10.0,81,0.00,,,0.00,Wunderground v.1.15,2014-02-04 16:37:00,
2014-02-04 11:42:00,19.0,13.8,30.39,ENE,69,1.0,11.0,80,0.00,,,0.00,Wunderground v.1.15,2014-02-04 16:42:00,
2014-02-04 11:47:00,18.9,13.7,30.38,ENE,67,3.0,11.0,80,0.00,,,0.00,Wunderground v.1.15,2014-02-04 16:47:00,
2014-02-04 11:53:00,19.1,14.2,30.37,East,85,3.0,7.0,81,0.00,,,0.00,Wunderground v.1.15,2014-02-04 16:53:00,
2014-02-04 11:58:00,19.3,14.1,30.37,NE,40,12.0,13.0,80,0.00,,,0.00,Wunderground v.1.15,2014-02-04 16:58:00,
2014-02-04 12:03:00,19.4,14.2,30.37,ENE,78,3.0,10.0,80,0.00,,,0.00,Wunderground v.1.15,2014-02-04 17:03:00,
2014-02-04 12:08:00,19.6,14.4,30.37,East,88,4.0,10.0,80,0.00,,,0.00,Wunderground v.1.15,2014-02-04 17:08:00,
2014-02-04 12:13:00,19.7,14.0,30.37,ENE,65,2.0,6.0,78,0.00,,,0.00,Wunderground v.1.15,2014-02-04 17:13:00,
2014-02-04 12:18:00,19.7,14.0,30.37,NE,53,3.0,14.0,78,0.00,,,0.00,Wunderground v.1.15,2014-02-04 17:18:00,
2014-02-04 12:23:00,19.7,13.7,30.39,East,81,3.0,11.0,77,0.00,,,0.00,Wunderground v.1.15,2014-02-04 17:23:00,
2014-02-04 12:28:00,19.7,13.7,30.39,NE,44,3.0,11.0,77,0.00,,,0.00,Wunderground v.1.15,2014-02-04 17:28:00,
2014-02-04 12:34:00,19.7,13.7,30.39,NE,49,3.0,4.0,77,0.00,,,0.00,Wunderground v.1.15,2014-02-04 17:34:00,
2014-02-04 12:39:00,19.7,13.4,30.39,NE,55,3.0,6.0,76,0.00,,,0.00,Wunderground v.1.15,2014-02-04 17:39:00,
2014-02-04 12:44:00,19.8,13.5,30.39,ENE,59,0.0,3.0,76,0.00,,,0.00,Wunderground v.1.15,2014-02-04 17:44:00,
2014-02-04 12:49:00,19.9,13.9,30.39,ENE,61,0.0,4.0,77,0.00,,,0.00,Wunderground v.1.15,2014-02-04 17:49:00,
2014-02-04 12:54:00,20.0,13.9,30.38,ENE,63,2.0,4.0,77,0.00,,,0.00,Wunderground v.1.15,2014-02-04 17:54:00,
2014-02-04 12:59:00,20.1,13.4,30.38,East,84,1.0,5.0,75,0.00,,,0.00,Wunderground v.1.15,2014-02-04 17:59:00,
2014-02-04 13:05:00,20.2,13.5,30.37,East,94,1.0,7.0,75,0.00,,,0.00,Wunderground v.1.15,2014-02-04 18:05:00,
2014-02-04 13:10:00,20.3,13.6,30.37,East,92,2.0,3.0,75,0.00,,,0.00,Wunderground v.1.15,2014-02-04 18:10:00,
2014-02-04 13:15:00,20.4,14.0,30.37,East,92,0.0,3.0,76,0.00,,,0.00,Wunderground v.1.15,2014-02-04 18:15:00,
2014-02-04 13:20:00,20.3,13.6,30.36,ENE,67,5.0,5.0,75,0.00,,,0.00,Wunderground v.1.15,2014-02-04 18:20:00,
2014-02-04 13:25:00,20.2,13.5,30.36,ENE,63,3.0,6.0,75,0.00,,,0.00,Wunderground v.1.15,2014-02-04 18:25:00,
2014-02-04 13:30:00,20.2,13.8,30.38,ENE,63,0.0,1.0,76,0.00,,,0.00,Wunderground v.1.15,2014-02-04 18:30:00,
2014-02-04 13:35:00,20.4,14.0,30.38,ENE,63,0.0,2.0,76,0.00,,,0.00,Wunderground v.1.15,2014-02-04 18:35:00,
2014-02-04 13:40:00,20.5,13.8,30.38,ENE,63,0.0,1.0,75,0.00,,,0.00,Wunderground v.1.15,2014-02-04 18:40:00,
2014-02-04 13:45:00,20.6,13.9,30.38,ENE,63,1.0,2.0,75,0.00,,,0.00,Wunderground v.1.15,2014-02-04 18:45:00,
2014-02-04 13:48:00,20.6,13.6,30.38,ENE,64,1.0,2.0,74,0.00,,,0.00,Wunderground v.1.15,2014-02-04 18:48:00,
2014-02-04 13:53:00,20.7,13.7,30.37,ENE,65,0.0,3.0,74,0.00,,,0.00,Wunderground v.1.15,2014-02-04 18:53:00,
2014-02-04 13:58:00,20.6,13.3,30.37,East,82,1.0,3.0,73,0.00,,,0.00,Wunderground v.1.15,2014-02-04 18:58:00,
2014-02-04 14:03:00,20.6,13.3,30.37,East,83,2.0,4.0,73,0.00,,,0.00,Wunderground v.1.15,2014-02-04 19:03:00,
2014-02-04 14:08:00,20.5,13.2,30.36,East,86,2.0,4.0,73,0.00,,,0.00,Wunderground v.1.15,2014-02-04 19:08:00,
2014-02-04 14:13:00,20.4,13.1,30.35,East,84,2.0,4.0,73,0.00,,,0.00,Wunderground v.1.15,2014-02-04 19:13:00,
2014-02-04 14:18:00,20.3,13.3,30.34,ENE,57,1.0,9.0,74,0.00,,,0.00,Wunderground v.1.15,2014-02-04 19:18:00,
2014-02-04 14:24:00,20.2,13.5,30.34,ENE,57,2.0,4.0,75,0.00,,,0.00,Wunderground v.1.15,2014-02-04 19:24:00,
2014-02-04 14:29:00,20.2,13.5,30.34,NE,56,4.0,6.0,75,0.00,,,0.00,Wunderground v.1.15,2014-02-04 19:29:00,
2014-02-04 14:34:00,20.2,13.8,30.33,ENE,59,1.0,5.0,76,0.00,,,0.00,Wunderground v.1.15,2014-02-04 19:34:00,
2014-02-04 14:39:00,20.2,13.5,30.34,ENE,67,0.0,5.0,75,0.00,,,0.00,Wunderground v.1.15,2014-02-04 19:39:00,
2014-02-04 14:44:00,20.2,13.5,30.34,East,80,0.0,4.0,75,0.00,,,0.00,Wunderground v.1.15,2014-02-04 19:44:00,
2014-02-04 14:49:00,20.2,13.5,30.34,East,79,0.0,4.0,75,0.00,,,0.00,Wunderground v.1.15,2014-02-04 19:49:00,
2014-02-04 14:54:00,20.3,13.6,30.33,ENE,59,1.0,8.0,75,0.00,,,0.00,Wunderground v.1.15,2014-02-04 19:54:00,
2014-02-04 15:00:00,20.3,13.6,30.33,ENE,59,3.0,3.0,75,0.00,,,0.00,Wunderground v.1.15,2014-02-04 20:00:00,
2014-02-04 15:05:00,20.3,13.9,30.33,NE,50,5.0,7.0,76,0.00,,,0.00,Wunderground v.1.15,2014-02-04 20:05:00,
2014-02-04 15:10:00,20.2,13.5,30.32,ENE,60,2.0,6.0,75,0.00,,,0.00,Wunderground v.1.15,2014-02-04 20:10:00,
2014-02-04 15:15:00,20.1,13.4,30.32,ENE,66,1.0,9.0,75,0.00,,,0.00,Wunderground v.1.15,2014-02-04 20:15:00,
2014-02-04 15:20:00,20.2,13.5,30.32,ENE,64,1.0,2.0,75,0.00,,,0.00,Wunderground v.1.15,2014-02-04 20:20:00,
2014-02-04 15:25:00,20.2,13.5,30.32,ENE,61,8.0,8.0,75,0.00,,,0.00,Wunderground v.1.15,2014-02-04 20:25:00,
2014-02-04 15:31:00,20.3,13.6,30.32,ENE,59,3.0,4.0,75,0.00,,,0.00,Wunderground v.1.15,2014-02-04 20:31:00,
2014-02-04 15:36:00,20.4,13.7,30.32,ENE,59,0.0,4.0,75,0.00,,,0.00,Wunderground v.1.15,2014-02-04 20:36:00,
2014-02-04 15:41:00,20.4,13.7,30.32,NE,53,2.0,6.0,75,0.00,,,0.00,Wunderground v.1.15,2014-02-04 20:41:00,
2014-02-04 15:46:00,20.4,13.4,30.32,NE,53,1.0,6.0,74,0.00,,,0.00,Wunderground v.1.15,2014-02-04 20:46:00,
2014-02-04 15:51:00,20.4,13.4,30.32,NE,55,4.0,7.0,74,0.00,,,0.00,Wunderground v.1.15,2014-02-04 20:51:00,
2014-02-04 15:56:00,20.4,13.4,30.32,NE,55,1.0,7.0,74,0.00,,,0.00,Wunderground v.1.15,2014-02-04 20:56:00,
2014-02-04 16:01:00,20.4,13.7,30.32,NE,55,0.0,1.0,75,0.00,,,0.00,Wunderground v.1.15,2014-02-04 21:01:00,
2014-02-04 16:07:00,20.4,13.7,30.30,East,89,1.0,11.0,75,0.00,,,0.00,Wunderground v.1.15,2014-02-04 21:07:00,
2014-02-04 16:12:00,20.3,13.9,30.30,ENE,76,3.0,7.0,76,0.00,,,0.00,Wunderground v.1.15,2014-02-04 21:12:00,
2014-02-04 16:17:00,20.1,14.3,30.31,East,87,0.0,7.0,78,0.00,,,0.00,Wunderground v.1.15,2014-02-04 21:17:00,
2014-02-04 16:22:00,19.8,14.6,30.31,East,88,1.0,2.0,80,0.00,,,0.00,Wunderground v.1.15,2014-02-04 21:22:00,
2014-02-04 16:27:00,19.7,15.1,30.31,East,86,0.0,9.0,82,0.00,,,0.00,Wunderground v.1.15,2014-02-04 21:27:00,
2014-02-04 16:32:00,19.3,15.0,30.31,ENE,64,6.0,8.0,83,0.00,,,0.00,Wunderground v.1.15,2014-02-04 21:32:00,
2014-02-04 16:37:00,18.9,14.9,30.30,ENE,63,1.0,8.0,84,0.00,,,0.00,Wunderground v.1.15,2014-02-04 21:37:00,
2014-02-04 16:42:00,18.7,14.9,30.30,ENE,71,1.0,8.0,85,0.00,,,0.00,Wunderground v.1.15,2014-02-04 21:42:00,
2014-02-04 16:47:00,18.6,15.1,30.30,ENE,74,4.0,12.0,86,0.00,,,0.00,Wunderground v.1.15,2014-02-04 21:47:00,
2014-02-04 16:52:00,18.5,15.3,30.30,ENE,72,0.0,8.0,87,0.00,,,0.00,Wunderground v.1.15,2014-02-04 21:52:00,
2014-02-04 16:57:00,18.5,15.3,30.30,ENE,75,3.0,9.0,87,0.00,,,0.00,Wunderground v.1.15,2014-02-04 21:57:00,
2014-02-04 17:02:00,18.5,15.3,30.30,NE,56,6.0,12.0,87,0.00,,,0.00,Wunderground v.1.15,2014-02-04 22:02:00,
2014-02-04 17:07:00,18.5,15.5,30.30,ENE,67,4.0,12.0,88,0.00,,,0.00,Wunderground v.1.15,2014-02-04 22:07:00,
2014-02-04 17:12:00,18.5,15.5,30.30,NE,54,5.0,11.0,88,0.00,,,0.00,Wunderground v.1.15,2014-02-04 22:12:00,
2014-02-04 17:18:00,18.5,15.5,30.29,NE,52,7.0,11.0,88,0.00,,,0.00,Wunderground v.1.15,2014-02-04 22:18:00,
2014-02-04 17:23:00,18.5,15.5,30.28,ENE,62,5.0,9.0,88,0.00,,,0.00,Wunderground v.1.15,2014-02-04 22:23:00,
2014-02-04 17:28:00,18.5,15.5,30.28,ENE,57,2.0,11.0,88,0.00,,,0.00,Wunderground v.1.15,2014-02-04 22:28:00,
2014-02-04 17:33:00,18.6,15.9,30.28,ENE,65,6.0,12.0,89,0.00,,,0.00,Wunderground v.1.15,2014-02-04 22:33:00,
2014-02-04 17:38:00,18.7,16.0,30.28,NE,53,3.0,12.0,89,0.00,,,0.00,Wunderground v.1.15,2014-02-04 22:38:00,
2014-02-04 17:43:00,18.8,16.1,30.28,NE,53,4.0,13.0,89,0.00,,,0.00,Wunderground v.1.15,2014-02-04 22:43:00,
2014-02-04 17:48:00,18.9,16.2,30.29,ENE,59,2.0,13.0,89,0.00,,,0.00,Wunderground v.1.15,2014-02-04 22:48:00,
2014-02-04 17:53:00,19.0,16.3,30.30,ENE,68,3.0,6.0,89,0.00,,,0.00,Wunderground v.1.15,2014-02-04 22:53:00,
2014-02-04 17:58:00,19.0,16.3,30.30,ENE,63,3.0,11.0,89,0.00,,,0.00,Wunderground v.1.15,2014-02-04 22:58:00,
2014-02-04 18:04:00,19.0,16.3,30.30,ENE,62,1.0,9.0,89,0.00,,,0.00,Wunderground v.1.15,2014-02-04 23:04:00,
2014-02-04 18:09:00,19.0,16.3,30.29,ENE,66,2.0,9.0,89,0.00,,,0.00,Wunderground v.1.15,2014-02-04 23:09:00,
2014-02-04 18:14:00,18.9,16.2,30.29,ENE,59,11.0,11.0,89,0.00,,,0.00,Wunderground v.1.15,2014-02-04 23:14:00,
2014-02-04 18:19:00,18.8,16.1,30.27,ENE,78,7.0,13.0,89,0.00,,,0.00,Wunderground v.1.15,2014-02-04 23:19:00,
2014-02-04 18:24:00,18.8,16.1,30.26,ENE,74,5.0,13.0,89,0.00,,,0.00,Wunderground v.1.15,2014-02-04 23:24:00,
2014-02-04 18:29:00,18.7,16.0,30.26,ENE,57,3.0,14.0,89,0.00,,,0.00,Wunderground v.1.15,2014-02-04 23:29:00,
2014-02-04 18:34:00,18.6,15.9,30.26,ENE,69,4.0,10.0,89,0.00,,,0.00,Wunderground v.1.15,2014-02-04 23:34:00,
2014-02-04 18:40:00,18.6,15.9,30.24,ENE,68,4.0,5.0,89,0.00,,,0.00,Wunderground v.1.15,2014-02-04 23:40:00,
2014-02-04 18:45:00,18.5,15.8,30.24,ENE,63,10.0,14.0,89,0.00,,,0.00,Wunderground v.1.15,2014-02-04 23:45:00,
2014-02-04 18:50:00,18.5,16.1,30.23,East,84,7.0,11.0,90,0.00,,,0.00,Wunderground v.1.15,2014-02-04 23:50:00,
2014-02-04 18:55:00,18.5,16.1,30.22,ENE,76,5.0,11.0,90,0.00,,,0.00,Wunderground v.1.15,2014-02-04 23:55:00,
2014-02-04 19:00:00,18.4,16.0,30.23,East,97,3.0,9.0,90,0.00,,,0.00,Wunderground v.1.15,2014-02-05 00:00:00,
2014-02-04 19:05:00,18.4,16.0,30.24,NE,48,10.0,13.0,90,0.00,,,0.00,Wunderground v.1.15,2014-02-05 00:05:00,
2014-02-04 19:10:00,18.4,16.0,30.25,ENE,60,4.0,7.0,90,0.00,,,0.00,Wunderground v.1.15,2014-02-05 00:10:00,
2014-02-04 19:15:00,18.4,16.0,30.23,NE,55,10.0,10.0,90,0.00,,,0.00,Wunderground v.1.15,2014-02-05 00:15:00,
2014-02-04 19:21:00,18.4,16.0,30.22,ENE,66,4.0,12.0,90,0.00,,,0.00,Wunderground v.1.15,2014-02-05 00:21:00,
2014-02-04 19:26:00,18.4,16.0,30.23,ENE,78,2.0,13.0,90,0.00,,,0.00,Wunderground v.1.15,2014-02-05 00:26:00,
2014-02-04 19:31:00,18.5,16.1,30.23,ENE,60,7.0,10.0,90,0.00,,,0.00,Wunderground v.1.15,2014-02-05 00:31:00,
2014-02-04 19:36:00,18.5,16.1,30.23,ENE,77,9.0,16.0,90,0.00,,,0.00,Wunderground v.1.15,2014-02-05 00:36:00,
2014-02-04 19:41:00,18.5,16.1,30.21,ENE,76,2.0,11.0,90,0.00,,,0.00,Wunderground v.1.15,2014-02-05 00:41:00,
2014-02-04 19:46:00,18.5,15.8,30.21,ENE,71,8.0,11.0,89,0.00,,,0.00,Wunderground v.1.15,2014-02-05 00:46:00,
2014-02-04 19:52:00,18.5,15.8,30.20,NE,55,11.0,11.0,89,0.00,,,0.00,Wunderground v.1.15,2014-02-05 00:52:00,
2014-02-04 19:57:00,18.5,15.8,30.19,NE,40,12.0,14.0,89,0.00,,,0.00,Wunderground v.1.15,2014-02-05 00:57:00,
2014-02-04 20:02:00,18.5,15.8,30.20,NE,47,9.0,11.0,89,0.00,,,0.00,Wunderground v.1.15,2014-02-05 01:02:00,
2014-02-04 20:10:00,18.5,15.8,30.19,ENE,59,5.0,12.0,89,0.00,,,0.00,Wunderground v.1.15,2014-02-05 01:10:00,
2014-02-04 20:14:00,18.6,15.9,30.19,NE,55,9.0,14.0,89,0.00,,,0.00,Wunderground v.1.15,2014-02-05 01:14:00,
2014-02-04 20:19:00,18.6,15.9,30.19,ENE,63,5.0,14.0,89,0.00,,,0.00,Wunderground v.1.15,2014-02-05 01:19:00,
2014-02-04 20:24:00,18.6,15.9,30.17,ENE,67,2.0,15.0,89,0.00,,,0.00,Wunderground v.1.15,2014-02-05 01:24:00,
2014-02-04 20:30:00,18.6,15.9,30.17,NE,53,5.0,8.0,89,0.00,,,0.00,Wunderground v.1.15,2014-02-05 01:30:00,
2014-02-04 20:35:00,18.6,15.9,30.16,NE,53,6.0,16.0,89,0.00,,,0.00,Wunderground v.1.15,2014-02-05 01:35:00,
2014-02-04 20:40:00,18.6,15.9,30.15,ENE,63,4.0,7.0,89,0.00,,,0.00,Wunderground v.1.15,2014-02-05 01:40:00,
2014-02-04 20:45:00,18.6,15.9,30.16,ENE,76,4.0,15.0,89,0.00,,,0.00,Wunderground v.1.15,2014-02-05 01:45:00,
2014-02-04 20:50:00,18.6,15.9,30.16,North,5,6.0,13.0,89,0.00,,,0.00,Wunderground v.1.15,2014-02-05 01:50:00,
2014-02-04 20:55:00,18.6,16.2,30.16,NE,47,4.0,13.0,90,0.00,,,0.00,Wunderground v.1.15,2014-02-05 01:55:00,
2014-02-04 21:01:00,18.6,16.2,30.15,NE,52,5.0,10.0,90,0.00,,,0.00,Wunderground v.1.15,2014-02-05 02:01:00,
2014-02-04 21:06:00,18.6,16.2,30.14,ENE,59,12.0,13.0,90,0.00,,,0.00,Wunderground v.1.15,2014-02-05 02:06:00,
2014-02-04 21:11:00,18.6,16.2,30.13,NE,56,10.0,14.0,90,0.00,,,0.00,Wunderground v.1.15,2014-02-05 02:11:00,
2014-02-04 21:16:00,18.7,16.3,30.14,NE,51,3.0,14.0,90,0.00,,,0.00,Wunderground v.1.15,2014-02-05 02:16:00,
2014-02-04 21:22:00,18.8,16.4,30.16,NE,38,6.0,12.0,90,0.00,,,0.00,Wunderground v.1.15,2014-02-05 02:22:00,
2014-02-04 21:27:00,18.8,16.4,30.15,ENE,67,6.0,12.0,90,0.00,,,0.00,Wunderground v.1.15,2014-02-05 02:27:00,
2014-02-04 21:32:00,18.9,16.5,30.15,ENE,69,2.0,9.0,90,0.00,,,0.00,Wunderground v.1.15,2014-02-05 02:32:00,
2014-02-04 21:37:00,18.9,16.5,30.15,ENE,71,2.0,12.0,90,0.00,,,0.00,Wunderground v.1.15,2014-02-05 02:37:00,
2014-02-04 21:42:00,18.9,16.5,30.12,ENE,78,8.0,14.0,90,0.00,,,0.00,Wunderground v.1.15,2014-02-05 02:42:00,
2014-02-04 21:47:00,18.9,16.5,30.13,East,81,4.0,14.0,90,0.00,,,0.00,Wunderground v.1.15,2014-02-05 02:47:00,
2014-02-04 21:53:00,18.9,16.5,30.13,NE,50,10.0,13.0,90,0.00,,,0.00,Wunderground v.1.15,2014-02-05 02:53:00,
2014-02-04 21:58:00,19.0,16.6,30.13,NE,51,5.0,15.0,90,0.00,,,0.00,Wunderground v.1.15,2014-02-05 02:58:00,
2014-02-04 22:03:00,19.0,16.6,30.12,ENE,59,4.0,14.0,90,0.00,,,0.00,Wunderground v.1.15,2014-02-05 03:03:00,
2014-02-04 22:08:00,19.0,16.6,30.11,ENE,77,7.0,14.0,90,0.00,,,0.00,Wunderground v.1.15,2014-02-05 03:08:00,
2014-02-04 22:13:00,19.0,16.6,30.11,ENE,63,1.0,13.0,90,0.00,,,0.00,Wunderground v.1.15,2014-02-05 03:13:00,
2014-02-04 22:18:00,19.0,16.6,30.11,ENE,59,5.0,14.0,90,0.00,,,0.00,Wunderground v.1.15,2014-02-05 03:18:00,
2014-02-04 22:23:00,19.0,16.6,30.11,East,88,5.0,11.0,90,0.00,,,0.00,Wunderground v.1.15,2014-02-05 03:23:00,
2014-02-04 22:28:00,19.0,16.6,30.10,ENE,57,5.0,14.0,90,0.00,,,0.00,Wunderground v.1.15,2014-02-05 03:28:00,
2014-02-04 22:33:00,19.0,16.6,30.10,ENE,73,4.0,14.0,90,0.00,,,0.00,Wunderground v.1.15,2014-02-05 03:33:00,
2014-02-04 22:38:00,19.0,16.6,30.09,NE,56,3.0,14.0,90,0.00,,,0.00,Wunderground v.1.15,2014-02-05 03:38:00,
2014-02-04 22:44:00,19.0,16.6,30.09,ESE,105,7.0,13.0,90,0.00,,,0.00,Wunderground v.1.15,2014-02-05 03:44:00,
2014-02-04 22:49:00,19.0,16.6,30.08,ENE,57,4.0,15.0,90,0.00,,,0.00,Wunderground v.1.15,2014-02-05 03:49:00,
2014-02-04 22:54:00,19.0,16.6,30.08,ENE,72,14.0,14.0,90,0.00,,,0.00,Wunderground v.1.15,2014-02-05 03:54:00,
2014-02-04 22:59:00,19.0,16.6,30.08,East,91,8.0,19.0,90,0.00,,,0.00,Wunderground v.1.15,2014-02-05 03:59:00,
2014-02-04 23:04:00,19.0,16.6,30.09,ENE,76,4.0,13.0,90,0.00,,,0.00,Wunderground v.1.15,2014-02-05 04:04:00,
2014-02-04 23:09:00,19.0,16.6,30.08,East,100,4.0,14.0,90,0.00,,,0.00,Wunderground v.1.15,2014-02-05 04:09:00,
2014-02-04 23:14:00,19.0,16.6,30.07,ENE,64,8.0,14.0,90,0.00,,,0.00,Wunderground v.1.15,2014-02-05 04:14:00,
2014-02-04 23:19:00,19.0,16.6,30.08,ENE,74,7.0,14.0,90,0.00,,,0.00,Wunderground v.1.15,2014-02-05 04:19:00,
2014-02-04 23:24:00,19.1,16.7,30.08,ESE,103,12.0,12.0,90,0.00,,,0.00,Wunderground v.1.15,2014-02-05 04:24:00,
2014-02-04 23:29:00,19.1,16.7,30.05,NE,49,13.0,15.0,90,0.00,,,0.00,Wunderground v.1.15,2014-02-05 04:29:00,
2014-02-04 23:34:00,19.1,16.7,30.02,ENE,70,6.0,13.0,90,0.00,,,0.00,Wunderground v.1.15,2014-02-05 04:34:00,
2014-02-04 23:39:00,19.1,16.7,30.05,ENE,66,8.0,16.0,90,0.00,,,0.00,Wunderground v.1.15,2014-02-05 04:39:00,
2014-02-04 23:44:00,19.2,16.7,30.04,East,82,5.0,17.0,90,0.00,,,0.00,Wunderground v.1.15,2014-02-05 04:44:00,
2014-02-04 23:49:00,19.2,16.7,30.04,ENE,60,2.0,17.0,90,0.00,,,0.00,Wunderground v.1.15,2014-02-05 04:49:00,
2014-02-04 23:54:00,19.3,16.8,30.04,ENE,61,4.0,11.0,90,0.00,,,0.00,Wunderground v.1.15,2014-02-05 04:54:00,
2014-02-04 23:59:00,19.3,16.8,30.03,NE,55,9.0,14.0,90,0.00,,,0.00,Wunderground v.1.15,2014-02-05 04:59:00,